| Date | Time | Temp. (oF) | Dew Point (oF) | Rel. Hum. (%) | Press. (in.) | Wind Dir. | Wind Speed (mph) | Hourly Rainfall (in.) |
|
|---|---|---|---|---|---|---|---|---|---|
| 1 | 12/18 | 00:00 | 36 | 21 | 55 | 29.91 | WNW | 27 | 0.00 |
| 2 | 12/17 | 23:00 | 37 | 23 | 59 | 29.90 | W | 8 | 0.00 |
| 3 | 12/17 | 22:00 | 37 | 25 | 62 | 29.89 | WNW | 7 | 0.00 |
| 4 | 12/17 | 21:00 | 37 | 23 | 59 | 29.89 | W | 11 | 0.00 |
| 5 | 12/17 | 20:00 | 38 | 24 | 59 | 29.89 | W | 6 | 0.00 |
| 6 | 12/17 | 19:00 | 38 | 23 | 56 | 29.88 | NW | 15 | 0.00 |
| 7 | 12/17 | 18:00 | 39 | 25 | 58 | 29.86 | WNW | 13 | 0.00 |
| 8 | 12/17 | 17:00 | 40 | 25 | 57 | 29.82 | W | 13 | 0.00 |
| 9 | 12/17 | 16:00 | 42 | 26 | 53 | 29.79 | WSW | 13 | 0.00 |
| 10 | 12/17 | 15:00 | 44 | 27 | 52 | 29.76 | NW | 15 | 0.00 |
| 11 | 12/17 | 14:00 | 45 | 28 | 53 | 29.75 | W | 13 | 0.00 |
| 12 | 12/17 | 13:00 | 45 | 35 | 68 | 29.76 | SSW | 4 | 0.00 |
| 13 | 12/17 | 12:00 | 44 | 35 | 71 | 29.78 | SW | 4 | 0.00 |
| 14 | 12/17 | 11:00 | 42 | 34 | 75 | 29.80 | WSW | 4 | 0.00 |
| 15 | 12/17 | 10:00 | 41 | 34 | 78 | 29.82 | SSW | 4 | 0.00 |
| 16 | 12/17 | 09:00 | 38 | 35 | 91 | 29.82 | SW | 3 | 0.00 |
| 17 | 12/17 | 08:00 | 34 | 33 | 99 | 29.81 | SW | 1 | 0.00 |
| 18 | 12/17 | 07:00 | 34 | 33 | 98 | 29.82 | SW | 2 | 0.00 |
| 19 | 12/17 | 06:00 | 36 | 34 | 96 | 29.82 | SW | 1 | 0.00 |
| 20 | 12/17 | 05:00 | 38 | 36 | 94 | 29.80 | S | 2 | 0.00 |
| 21 | 12/17 | 04:00 | 38 | 36 | 95 | 29.82 | W | 1 | 0.00 |
| 22 | 12/17 | 03:00 | 38 | 37 | 97 | 29.84 | SW | 2 | 0.00 |
| 23 | 12/17 | 02:00 | 37 | 36 | 98 | 29.84 | SW | 3 | 0.00 |
| 24 | 12/17 | 01:00 | 37 | 36 | 97 | 29.84 | W | 4 | 0.00 |